sensor_id;sensor_type;location;lat;lon;timestamp;temperature;humidity
11304;DHT22;5707;49.588;12.148;2023-01-09T00:02:06;3.00;99.90
11304;DHT22;5707;49.588;12.148;2023-01-09T00:04:33;3.10;99.90
11304;DHT22;5707;49.588;12.148;2023-01-09T00:06:59;3.10;99.90
11304;DHT22;5707;49.588;12.148;2023-01-09T00:09:25;3.10;99.90
11304;DHT22;5707;49.588;12.148;2023-01-09T00:11:51;3.10;99.90
11304;DHT22;5707;49.588;12.148;2023-01-09T00:14:19;3.10;99.90
11304;DHT22;5707;49.588;12.148;2023-01-09T00:16:45;3.10;99.90
11304;DHT22;5707;49.588;12.148;2023-01-09T00:19:11;3.10;99.90
11304;DHT22;5707;49.588;12.148;2023-01-09T00:21:37;3.10;99.90
11304;DHT22;5707;49.588;12.148;2023-01-09T00:24:03;3.10;99.90
11304;DHT22;5707;49.588;12.148;2023-01-09T00:26:29;3.10;99.90
11304;DHT22;5707;49.588;12.148;2023-01-09T00:28:54;3.10;99.90
11304;DHT22;5707;49.588;12.148;2023-01-09T00:31:21;3.10;99.90
11304;DHT22;5707;49.588;12.148;2023-01-09T00:34:02;3.10;99.90
11304;DHT22;5707;49.588;12.148;2023-01-09T00:36:29;3.10;99.90
11304;DHT22;5707;49.588;12.148;2023-01-09T00:38:55;3.10;99.90
11304;DHT22;5707;49.588;12.148;2023-01-09T00:41:45;3.20;99.90
11304;DHT22;5707;49.588;12.148;2023-01-09T00:44:18;3.20;99.90
11304;DHT22;5707;49.588;12.148;2023-01-09T00:46:50;3.20;99.90
11304;DHT22;5707;49.588;12.148;2023-01-09T00:49:16;3.20;99.90
11304;DHT22;5707;49.588;12.148;2023-01-09T00:51:42;3.10;99.90
11304;DHT22;5707;49.588;12.148;2023-01-09T00:54:10;3.20;99.90
11304;DHT22;5707;49.588;12.148;2023-01-09T00:56:36;3.20;99.90
11304;DHT22;5707;49.588;12.148;2023-01-09T00:59:03;3.20;99.90
11304;DHT22;5707;49.588;12.148;2023-01-09T01:01:28;3.10;99.90
11304;DHT22;5707;49.588;12.148;2023-01-09T01:03:54;3.10;99.90
11304;DHT22;5707;49.588;12.148;2023-01-09T01:06:20;3.10;99.90
11304;DHT22;5707;49.588;12.148;2023-01-09T01:09:21;3.10;99.90
11304;DHT22;5707;49.588;12.148;2023-01-09T01:11:46;3.10;99.90
11304;DHT22;5707;49.588;12.148;2023-01-09T01:14:12;3.10;99.90
11304;DHT22;5707;49.588;12.148;2023-01-09T01:16:37;3.10;99.90
11304;DHT22;5707;49.588;12.148;2023-01-09T01:19:03;3.10;99.90
11304;DHT22;5707;49.588;12.148;2023-01-09T01:21:29;3.10;99.90
11304;DHT22;5707;49.588;12.148;2023-01-09T01:23:54;3.10;99.90
11304;DHT22;5707;49.588;12.148;2023-01-09T01:26:20;3.10;99.90
11304;DHT22;5707;49.588;12.148;2023-01-09T01:28:45;3.10;99.90
11304;DHT22;5707;49.588;12.148;2023-01-09T01:31:18;3.00;99.90
11304;DHT22;5707;49.588;12.148;2023-01-09T01:33:44;3.10;99.90
11304;DHT22;5707;49.588;12.148;2023-01-09T01:36:09;3.10;99.90
11304;DHT22;5707;49.588;12.148;2023-01-09T01:38:36;3.10;99.90
11304;DHT22;5707;49.588;12.148;2023-01-09T01:41:03;3.10;99.90
11304;DHT22;5707;49.588;12.148;2023-01-09T01:43:48;3.10;99.90
11304;DHT22;5707;49.588;12.148;2023-01-09T01:46:16;3.10;99.90
11304;DHT22;5707;49.588;12.148;2023-01-09T01:48:42;3.10;99.90
11304;DHT22;5707;49.588;12.148;2023-01-09T01:51:09;3.10;99.90
11304;DHT22;5707;49.588;12.148;2023-01-09T01:53:38;3.10;99.90
11304;DHT22;5707;49.588;12.148;2023-01-09T01:58:49;3.10;99.90
11304;DHT22;5707;49.588;12.148;2023-01-09T02:01:17;3.10;99.90
11304;DHT22;5707;49.588;12.148;2023-01-09T02:03:43;3.20;99.90
11304;DHT22;5707;49.588;12.148;2023-01-09T02:06:10;3.20;99.90
11304;DHT22;5707;49.588;12.148;2023-01-09T02:08:36;3.20;99.90
11304;DHT22;5707;49.588;12.148;2023-01-09T02:11:03;3.20;99.90
11304;DHT22;5707;49.588;12.148;2023-01-09T02:13:29;3.20;99.90
11304;DHT22;5707;49.588;12.148;2023-01-09T02:19:08;3.10;99.90
11304;DHT22;5707;49.588;12.148;2023-01-09T02:21:46;3.10;99.90
11304;DHT22;5707;49.588;12.148;2023-01-09T02:27:18;3.00;99.90
11304;DHT22;5707;49.588;12.148;2023-01-09T02:35:22;3.10;99.90
11304;DHT22;5707;49.588;12.148;2023-01-09T02:38:02;3.10;99.90
11304;DHT22;5707;49.588;12.148;2023-01-09T02:43:00;3.10;99.90
11304;DHT22;5707;49.588;12.148;2023-01-09T02:45:26;3.10;99.90
11304;DHT22;5707;49.588;12.148;2023-01-09T02:47:52;3.10;99.90
11304;DHT22;5707;49.588;12.148;2023-01-09T02:50:23;3.10;99.90
11304;DHT22;5707;49.588;12.148;2023-01-09T03:02:15;3.00;99.90
11304;DHT22;5707;49.588;12.148;2023-01-09T03:07:36;3.00;99.90
11304;DHT22;5707;49.588;12.148;2023-01-09T03:10:22;3.00;99.90
11304;DHT22;5707;49.588;12.148;2023-01-09T03:12:50;3.00;99.90
11304;DHT22;5707;49.588;12.148;2023-01-09T03:15:19;3.00;99.90
11304;DHT22;5707;49.588;12.148;2023-01-09T03:17:47;3.10;99.90
11304;DHT22;5707;49.588;12.148;2023-01-09T03:20:18;3.10;99.90
11304;DHT22;5707;49.588;12.148;2023-01-09T03:22:55;3.00;99.90
11304;DHT22;5707;49.588;12.148;2023-01-09T03:25:21;3.10;99.90
11304;DHT22;5707;49.588;12.148;2023-01-09T03:27:49;3.10;99.90
11304;DHT22;5707;49.588;12.148;2023-01-09T03:30:17;3.10;99.90
11304;DHT22;5707;49.588;12.148;2023-01-09T03:32:42;3.10;99.90
11304;DHT22;5707;49.588;12.148;2023-01-09T03:35:08;3.10;99.90
11304;DHT22;5707;49.588;12.148;2023-01-09T03:37:33;3.10;99.90
11304;DHT22;5707;49.588;12.148;2023-01-09T03:39:59;3.10;99.90
11304;DHT22;5707;49.588;12.148;2023-01-09T03:42:25;3.20;99.90
11304;DHT22;5707;49.588;12.148;2023-01-09T03:44:50;3.20;99.90
11304;DHT22;5707;49.588;12.148;2023-01-09T03:47:16;3.20;99.90
11304;DHT22;5707;49.588;12.148;2023-01-09T03:49:42;3.20;99.90
11304;DHT22;5707;49.588;12.148;2023-01-09T03:52:07;3.20;99.90
11304;DHT22;5707;49.588;12.148;2023-01-09T03:54:33;3.20;99.90
11304;DHT22;5707;49.588;12.148;2023-01-09T03:56:58;3.20;99.90
11304;DHT22;5707;49.588;12.148;2023-01-09T03:59:24;3.20;99.90
11304;DHT22;5707;49.588;12.148;2023-01-09T04:01:50;3.20;99.90
11304;DHT22;5707;49.588;12.148;2023-01-09T04:04:15;3.20;99.90
11304;DHT22;5707;49.588;12.148;2023-01-09T04:06:41;3.20;99.90
11304;DHT22;5707;49.588;12.148;2023-01-09T04:09:07;3.30;99.90
11304;DHT22;5707;49.588;12.148;2023-01-09T04:11:32;3.30;99.90
11304;DHT22;5707;49.588;12.148;2023-01-09T04:13:58;3.30;99.90
11304;DHT22;5707;49.588;12.148;2023-01-09T04:16:23;3.30;99.90
11304;DHT22;5707;49.588;12.148;2023-01-09T04:18:49;3.30;99.90
11304;DHT22;5707;49.588;12.148;2023-01-09T04:21:14;3.30;99.90
11304;DHT22;5707;49.588;12.148;2023-01-09T04:23:40;3.30;99.90
11304;DHT22;5707;49.588;12.148;2023-01-09T04:26:06;3.30;99.90
11304;DHT22;5707;49.588;12.148;2023-01-09T04:28:32;3.30;99.90
11304;DHT22;5707;49.588;12.148;2023-01-09T04:30:58;3.30;99.90
11304;DHT22;5707;49.588;12.148;2023-01-09T04:33:23;3.30;99.90
11304;DHT22;5707;49.588;12.148;2023-01-09T04:35:49;3.30;99.90
11304;DHT22;5707;49.588;12.148;2023-01-09T04:38:14;3.30;99.90
11304;DHT22;5707;49.588;12.148;2023-01-09T04:40:40;3.30;99.90
11304;DHT22;5707;49.588;12.148;2023-01-09T04:43:06;3.40;99.90
11304;DHT22;5707;49.588;12.148;2023-01-09T04:45:31;3.30;99.90
11304;DHT22;5707;49.588;12.148;2023-01-09T04:47:57;3.40;99.90
11304;DHT22;5707;49.588;12.148;2023-01-09T04:50:22;3.40;99.90
11304;DHT22;5707;49.588;12.148;2023-01-09T04:52:48;3.40;99.90
11304;DHT22;5707;49.588;12.148;2023-01-09T04:55:13;3.40;99.90
11304;DHT22;5707;49.588;12.148;2023-01-09T04:57:39;3.30;99.90
11304;DHT22;5707;49.588;12.148;2023-01-09T05:00:06;3.30;99.90
11304;DHT22;5707;49.588;12.148;2023-01-09T05:02:36;3.20;99.90
11304;DHT22;5707;49.588;12.148;2023-01-09T05:05:03;3.20;99.90
11304;DHT22;5707;49.588;12.148;2023-01-09T05:07:29;3.20;99.90
11304;DHT22;5707;49.588;12.148;2023-01-09T05:09:55;3.20;99.90
11304;DHT22;5707;49.588;12.148;2023-01-09T05:12:20;3.30;99.90
11304;DHT22;5707;49.588;12.148;2023-01-09T05:14:46;3.30;99.90
11304;DHT22;5707;49.588;12.148;2023-01-09T05:17:11;3.40;99.90
11304;DHT22;5707;49.588;12.148;2023-01-09T05:19:37;3.40;99.90
11304;DHT22;5707;49.588;12.148;2023-01-09T05:22:03;3.30;99.90
11304;DHT22;5707;49.588;12.148;2023-01-09T05:24:29;3.30;99.90
11304;DHT22;5707;49.588;12.148;2023-01-09T05:26:55;3.20;99.90
11304;DHT22;5707;49.588;12.148;2023-01-09T05:29:20;3.20;99.90
11304;DHT22;5707;49.588;12.148;2023-01-09T05:31:46;3.30;99.90
11304;DHT22;5707;49.588;12.148;2023-01-09T05:34:12;3.30;99.90
11304;DHT22;5707;49.588;12.148;2023-01-09T05:36:37;3.40;99.90
11304;DHT22;5707;49.588;12.148;2023-01-09T05:39:03;3.50;99.90
11304;DHT22;5707;49.588;12.148;2023-01-09T05:41:30;3.50;99.90
11304;DHT22;5707;49.588;12.148;2023-01-09T05:43:55;3.50;99.90
11304;DHT22;5707;49.588;12.148;2023-01-09T05:46:21;3.60;99.90
11304;DHT22;5707;49.588;12.148;2023-01-09T05:48:46;3.60;99.90
11304;DHT22;5707;49.588;12.148;2023-01-09T05:51:12;3.70;99.90
11304;DHT22;5707;49.588;12.148;2023-01-09T05:53:38;3.70;99.90
11304;DHT22;5707;49.588;12.148;2023-01-09T05:56:03;3.70;99.90
11304;DHT22;5707;49.588;12.148;2023-01-09T05:58:29;3.70;99.90
11304;DHT22;5707;49.588;12.148;2023-01-09T06:00:55;3.80;99.90
11304;DHT22;5707;49.588;12.148;2023-01-09T06:03:20;3.80;99.90
11304;DHT22;5707;49.588;12.148;2023-01-09T06:05:46;3.70;99.90
11304;DHT22;5707;49.588;12.148;2023-01-09T06:08:11;3.70;99.90
11304;DHT22;5707;49.588;12.148;2023-01-09T06:10:37;3.70;99.90
11304;DHT22;5707;49.588;12.148;2023-01-09T06:13:02;3.80;99.90
11304;DHT22;5707;49.588;12.148;2023-01-09T06:15:28;3.80;99.90
11304;DHT22;5707;49.588;12.148;2023-01-09T06:17:53;3.80;99.90
11304;DHT22;5707;49.588;12.148;2023-01-09T06:20:20;3.80;99.90
11304;DHT22;5707;49.588;12.148;2023-01-09T06:22:46;3.80;99.90
11304;DHT22;5707;49.588;12.148;2023-01-09T06:25:11;3.80;99.90
11304;DHT22;5707;49.588;12.148;2023-01-09T06:27:37;3.80;99.90
11304;DHT22;5707;49.588;12.148;2023-01-09T06:30:03;3.80;99.90
11304;DHT22;5707;49.588;12.148;2023-01-09T06:32:29;3.80;99.90
11304;DHT22;5707;49.588;12.148;2023-01-09T06:34:55;3.80;99.90
11304;DHT22;5707;49.588;12.148;2023-01-09T06:37:20;3.70;99.90
11304;DHT22;5707;49.588;12.148;2023-01-09T06:39:46;3.70;99.90
11304;DHT22;5707;49.588;12.148;2023-01-09T06:42:11;3.80;99.90
11304;DHT22;5707;49.588;12.148;2023-01-09T06:44:37;3.80;99.90
11304;DHT22;5707;49.588;12.148;2023-01-09T06:47:03;3.80;99.90
11304;DHT22;5707;49.588;12.148;2023-01-09T06:49:28;3.80;99.90
11304;DHT22;5707;49.588;12.148;2023-01-09T06:51:54;3.70;99.90
11304;DHT22;5707;49.588;12.148;2023-01-09T06:54:20;3.70;99.90
11304;DHT22;5707;49.588;12.148;2023-01-09T06:56:46;3.70;99.90
11304;DHT22;5707;49.588;12.148;2023-01-09T06:59:11;3.70;99.90
11304;DHT22;5707;49.588;12.148;2023-01-09T07:01:37;3.80;99.90
11304;DHT22;5707;49.588;12.148;2023-01-09T07:04:06;3.80;99.90
11304;DHT22;5707;49.588;12.148;2023-01-09T07:06:33;3.80;99.90
11304;DHT22;5707;49.588;12.148;2023-01-09T07:08:58;3.70;99.90
11304;DHT22;5707;49.588;12.148;2023-01-09T07:11:24;3.80;99.90
11304;DHT22;5707;49.588;12.148;2023-01-09T07:13:49;3.80;99.90
11304;DHT22;5707;49.588;12.148;2023-01-09T07:16:15;3.80;99.90
11304;DHT22;5707;49.588;12.148;2023-01-09T07:18:41;3.90;99.90
11304;DHT22;5707;49.588;12.148;2023-01-09T07:21:06;3.90;99.90
11304;DHT22;5707;49.588;12.148;2023-01-09T07:23:32;3.90;99.90
11304;DHT22;5707;49.588;12.148;2023-01-09T07:25:59;4.00;99.90
11304;DHT22;5707;49.588;12.148;2023-01-09T07:28:25;4.10;99.90
11304;DHT22;5707;49.588;12.148;2023-01-09T07:30:50;4.10;99.90
11304;DHT22;5707;49.588;12.148;2023-01-09T07:33:16;4.10;99.90
11304;DHT22;5707;49.588;12.148;2023-01-09T07:35:42;4.10;99.90
11304;DHT22;5707;49.588;12.148;2023-01-09T07:38:07;4.10;99.90
11304;DHT22;5707;49.588;12.148;2023-01-09T07:40:33;4.10;99.90
11304;DHT22;5707;49.588;12.148;2023-01-09T07:42:59;4.10;99.90
11304;DHT22;5707;49.588;12.148;2023-01-09T07:45:24;4.10;99.90
11304;DHT22;5707;49.588;12.148;2023-01-09T07:47:50;4.10;99.90
11304;DHT22;5707;49.588;12.148;2023-01-09T07:50:17;4.20;99.90
11304;DHT22;5707;49.588;12.148;2023-01-09T07:52:46;4.20;99.90
11304;DHT22;5707;49.588;12.148;2023-01-09T07:55:12;4.30;99.90
11304;DHT22;5707;49.588;12.148;2023-01-09T07:57:38;4.40;99.90
11304;DHT22;5707;49.588;12.148;2023-01-09T08:00:04;4.40;99.90
11304;DHT22;5707;49.588;12.148;2023-01-09T08:02:31;4.50;99.90
11304;DHT22;5707;49.588;12.148;2023-01-09T08:04:57;4.60;99.90
11304;DHT22;5707;49.588;12.148;2023-01-09T08:07:22;4.60;99.90
11304;DHT22;5707;49.588;12.148;2023-01-09T08:09:48;4.70;99.90
11304;DHT22;5707;49.588;12.148;2023-01-09T08:12:14;4.80;99.90
11304;DHT22;5707;49.588;12.148;2023-01-09T08:14:39;5.00;99.90
11304;DHT22;5707;49.588;12.148;2023-01-09T08:17:05;5.20;99.90
11304;DHT22;5707;49.588;12.148;2023-01-09T08:19:30;5.30;99.90
11304;DHT22;5707;49.588;12.148;2023-01-09T08:21:56;5.40;99.90
11304;DHT22;5707;49.588;12.148;2023-01-09T08:24:22;5.40;99.90
11304;DHT22;5707;49.588;12.148;2023-01-09T08:26:48;5.50;99.90
11304;DHT22;5707;49.588;12.148;2023-01-09T08:29:14;5.50;99.90
11304;DHT22;5707;49.588;12.148;2023-01-09T08:31:39;5.60;99.90
11304;DHT22;5707;49.588;12.148;2023-01-09T08:34:05;5.60;99.90
11304;DHT22;5707;49.588;12.148;2023-01-09T08:36:30;5.60;99.90
11304;DHT22;5707;49.588;12.148;2023-01-09T08:38:56;5.60;99.90
11304;DHT22;5707;49.588;12.148;2023-01-09T08:41:22;5.60;99.90
11304;DHT22;5707;49.588;12.148;2023-01-09T08:44:06;5.70;99.90
11304;DHT22;5707;49.588;12.148;2023-01-09T08:46:50;5.70;99.90
11304;DHT22;5707;49.588;12.148;2023-01-09T08:49:35;5.80;99.90
11304;DHT22;5707;49.588;12.148;2023-01-09T08:52:02;5.90;99.90
11304;DHT22;5707;49.588;12.148;2023-01-09T08:54:28;5.90;99.90
11304;DHT22;5707;49.588;12.148;2023-01-09T08:56:53;5.90;99.90
11304;DHT22;5707;49.588;12.148;2023-01-09T08:59:19;5.90;99.90
11304;DHT22;5707;49.588;12.148;2023-01-09T09:01:45;6.00;99.90
11304;DHT22;5707;49.588;12.148;2023-01-09T09:04:10;6.00;99.90
11304;DHT22;5707;49.588;12.148;2023-01-09T09:06:36;6.00;99.90
11304;DHT22;5707;49.588;12.148;2023-01-09T09:09:02;5.90;99.90
11304;DHT22;5707;49.588;12.148;2023-01-09T09:11:32;6.00;99.90
11304;DHT22;5707;49.588;12.148;2023-01-09T09:13:58;6.00;99.90
11304;DHT22;5707;49.588;12.148;2023-01-09T09:16:24;6.00;99.90
11304;DHT22;5707;49.588;12.148;2023-01-09T09:18:50;6.10;99.90
11304;DHT22;5707;49.588;12.148;2023-01-09T09:21:16;6.10;99.90
11304;DHT22;5707;49.588;12.148;2023-01-09T09:23:41;6.10;99.90
11304;DHT22;5707;49.588;12.148;2023-01-09T09:26:09;6.20;99.90
11304;DHT22;5707;49.588;12.148;2023-01-09T09:28:34;6.30;99.90
11304;DHT22;5707;49.588;12.148;2023-01-09T09:31:03;6.30;99.90
11304;DHT22;5707;49.588;12.148;2023-01-09T09:33:29;6.40;99.90
11304;DHT22;5707;49.588;12.148;2023-01-09T09:35:55;6.40;99.90
11304;DHT22;5707;49.588;12.148;2023-01-09T09:38:22;6.40;99.90
11304;DHT22;5707;49.588;12.148;2023-01-09T09:55:38;6.70;99.90
11304;DHT22;5707;49.588;12.148;2023-01-09T10:00:52;6.90;99.90
11304;DHT22;5707;49.588;12.148;2023-01-09T10:05:56;7.20;99.90
11304;DHT22;5707;49.588;12.148;2023-01-09T10:08:33;7.40;99.90
11304;DHT22;5707;49.588;12.148;2023-01-09T10:11:01;7.50;99.90
11304;DHT22;5707;49.588;12.148;2023-01-09T10:13:28;7.70;99.90
11304;DHT22;5707;49.588;12.148;2023-01-09T10:19:15;8.10;99.90
11304;DHT22;5707;49.588;12.148;2023-01-09T10:24:28;7.60;99.90
11304;DHT22;5707;49.588;12.148;2023-01-09T10:26:55;7.50;99.90
11304;DHT22;5707;49.588;12.148;2023-01-09T10:29:28;7.30;99.90
11304;DHT22;5707;49.588;12.148;2023-01-09T10:32:19;7.20;99.90
11304;DHT22;5707;49.588;12.148;2023-01-09T10:37:39;6.80;99.90
11304;DHT22;5707;49.588;12.148;2023-01-09T10:40:22;6.60;99.90
11304;DHT22;5707;49.588;12.148;2023-01-09T10:43:08;6.50;99.90
11304;DHT22;5707;49.588;12.148;2023-01-09T10:45:39;6.40;99.90
11304;DHT22;5707;49.588;12.148;2023-01-09T10:48:25;6.40;99.90
11304;DHT22;5707;49.588;12.148;2023-01-09T10:50:54;6.40;99.90
11304;DHT22;5707;49.588;12.148;2023-01-09T10:53:24;6.30;99.90
11304;DHT22;5707;49.588;12.148;2023-01-09T10:55:54;6.40;99.90
11304;DHT22;5707;49.588;12.148;2023-01-09T10:58:22;6.40;99.90
11304;DHT22;5707;49.588;12.148;2023-01-09T11:00:49;6.50;99.90
11304;DHT22;5707;49.588;12.148;2023-01-09T11:03:18;6.50;99.90
11304;DHT22;5707;49.588;12.148;2023-01-09T11:05:53;6.60;99.90
11304;DHT22;5707;49.588;12.148;2023-01-09T11:08:42;6.60;99.90
11304;DHT22;5707;49.588;12.148;2023-01-09T11:11:10;6.60;99.90
11304;DHT22;5707;49.588;12.148;2023-01-09T11:13:37;6.60;99.90
11304;DHT22;5707;49.588;12.148;2023-01-09T11:16:19;6.60;99.90
11304;DHT22;5707;49.588;12.148;2023-01-09T11:26:52;6.60;99.90
11304;DHT22;5707;49.588;12.148;2023-01-09T11:29:20;6.60;99.90
11304;DHT22;5707;49.588;12.148;2023-01-09T11:31:56;6.60;99.90
11304;DHT22;5707;49.588;12.148;2023-01-09T11:34:33;6.60;99.90
11304;DHT22;5707;49.588;12.148;2023-01-09T11:37:08;6.60;99.90
11304;DHT22;5707;49.588;12.148;2023-01-09T11:39:37;6.60;99.90
11304;DHT22;5707;49.588;12.148;2023-01-09T11:42:16;6.90;99.90
11304;DHT22;5707;49.588;12.148;2023-01-09T11:44:43;7.20;99.90
11304;DHT22;5707;49.588;12.148;2023-01-09T11:47:37;7.60;99.90
11304;DHT22;5707;49.588;12.148;2023-01-09T11:50:23;8.00;99.90
11304;DHT22;5707;49.588;12.148;2023-01-09T11:53:18;8.30;99.90
11304;DHT22;5707;49.588;12.148;2023-01-09T11:55:45;8.50;99.90
11304;DHT22;5707;49.588;12.148;2023-01-09T11:58:19;8.60;99.90
11304;DHT22;5707;49.588;12.148;2023-01-09T12:03:28;8.30;99.90
11304;DHT22;5707;49.588;12.148;2023-01-09T12:09:07;7.60;99.90
11304;DHT22;5707;49.588;12.148;2023-01-09T12:20:32;7.90;99.90
11304;DHT22;5707;49.588;12.148;2023-01-09T12:26:09;7.80;99.90
11304;DHT22;5707;49.588;12.148;2023-01-09T12:28:49;7.50;99.90
11304;DHT22;5707;49.588;12.148;2023-01-09T12:31:38;7.40;99.90
11304;DHT22;5707;49.588;12.148;2023-01-09T12:39:49;7.30;99.90
11304;DHT22;5707;49.588;12.148;2023-01-09T12:42:37;7.20;99.90
11304;DHT22;5707;49.588;12.148;2023-01-09T12:51:02;6.90;99.90
11304;DHT22;5707;49.588;12.148;2023-01-09T12:53:36;6.80;99.90
11304;DHT22;5707;49.588;12.148;2023-01-09T12:56:14;6.90;99.90
11304;DHT22;5707;49.588;12.148;2023-01-09T12:58:51;6.90;99.90
11304;DHT22;5707;49.588;12.148;2023-01-09T13:01:24;6.90;99.90
11304;DHT22;5707;49.588;12.148;2023-01-09T13:06:31;6.80;99.90
11304;DHT22;5707;49.588;12.148;2023-01-09T13:12:04;6.60;99.90
11304;DHT22;5707;49.588;12.148;2023-01-09T13:17:39;6.40;99.90
11304;DHT22;5707;49.588;12.148;2023-01-09T13:22:44;6.40;99.90
11304;DHT22;5707;49.588;12.148;2023-01-09T13:27:59;6.50;99.90
11304;DHT22;5707;49.588;12.148;2023-01-09T13:33:28;6.60;99.90
11304;DHT22;5707;49.588;12.148;2023-01-09T13:35:56;6.60;99.90
11304;DHT22;5707;49.588;12.148;2023-01-09T13:38:24;6.70;99.90
11304;DHT22;5707;49.588;12.148;2023-01-09T13:41:10;6.80;99.90
11304;DHT22;5707;49.588;12.148;2023-01-09T13:44:03;6.90;99.90
11304;DHT22;5707;49.588;12.148;2023-01-09T13:46:40;7.00;99.90
11304;DHT22;5707;49.588;12.148;2023-01-09T13:57:29;6.90;99.90
11304;DHT22;5707;49.588;12.148;2023-01-09T14:07:51;6.70;99.90
11304;DHT22;5707;49.588;12.148;2023-01-09T14:10:48;6.60;99.90
11304;DHT22;5707;49.588;12.148;2023-01-09T14:13:21;6.50;99.90
11304;DHT22;5707;49.588;12.148;2023-01-09T14:15:48;6.20;99.90
11304;DHT22;5707;49.588;12.148;2023-01-09T14:18:26;6.10;99.90
11304;DHT22;5707;49.588;12.148;2023-01-09T14:21:02;5.90;99.90
11304;DHT22;5707;49.588;12.148;2023-01-09T14:25:57;5.70;99.90
11304;DHT22;5707;49.588;12.148;2023-01-09T14:28:25;5.60;99.90
11304;DHT22;5707;49.588;12.148;2023-01-09T14:36:16;5.50;99.90
11304;DHT22;5707;49.588;12.148;2023-01-09T14:38:58;5.50;99.90
11304;DHT22;5707;49.588;12.148;2023-01-09T14:41:50;5.50;99.90
11304;DHT22;5707;49.588;12.148;2023-01-09T14:46:59;5.50;99.90
11304;DHT22;5707;49.588;12.148;2023-01-09T14:49:40;5.40;99.90
11304;DHT22;5707;49.588;12.148;2023-01-09T14:52:32;5.20;99.90
11304;DHT22;5707;49.588;12.148;2023-01-09T14:55:03;5.10;99.90
11304;DHT22;5707;49.588;12.148;2023-01-09T14:57:32;5.10;99.90
11304;DHT22;5707;49.588;12.148;2023-01-09T15:00:14;5.10;99.90
11304;DHT22;5707;49.588;12.148;2023-01-09T15:02:41;5.20;99.90
11304;DHT22;5707;49.588;12.148;2023-01-09T15:05:16;5.10;99.90
11304;DHT22;5707;49.588;12.148;2023-01-09T15:07:48;5.10;99.90
11304;DHT22;5707;49.588;12.148;2023-01-09T15:10:22;5.10;99.90
11304;DHT22;5707;49.588;12.148;2023-01-09T15:12:51;5.20;99.90
11304;DHT22;5707;49.588;12.148;2023-01-09T15:15:18;5.20;99.90
11304;DHT22;5707;49.588;12.148;2023-01-09T15:17:54;5.10;99.90
11304;DHT22;5707;49.588;12.148;2023-01-09T15:20:24;5.10;99.90
11304;DHT22;5707;49.588;12.148;2023-01-09T15:22:51;5.00;99.90
11304;DHT22;5707;49.588;12.148;2023-01-09T15:25:24;4.80;99.90
11304;DHT22;5707;49.588;12.148;2023-01-09T15:27:50;4.60;99.90
11304;DHT22;5707;49.588;12.148;2023-01-09T15:33:02;4.20;99.90
11304;DHT22;5707;49.588;12.148;2023-01-09T15:35:29;4.10;99.90
11304;DHT22;5707;49.588;12.148;2023-01-09T15:37:55;4.10;99.90
11304;DHT22;5707;49.588;12.148;2023-01-09T15:40:25;4.30;99.90
11304;DHT22;5707;49.588;12.148;2023-01-09T15:42:56;4.40;99.90
11304;DHT22;5707;49.588;12.148;2023-01-09T15:45:41;4.50;99.90
11304;DHT22;5707;49.588;12.148;2023-01-09T15:50:46;4.20;99.90
11304;DHT22;5707;49.588;12.148;2023-01-09T15:53:15;4.10;99.90
11304;DHT22;5707;49.588;12.148;2023-01-09T15:55:41;4.00;99.90
11304;DHT22;5707;49.588;12.148;2023-01-09T15:58:27;3.90;99.90
11304;DHT22;5707;49.588;12.148;2023-01-09T16:03:46;3.50;99.90
11304;DHT22;5707;49.588;12.148;2023-01-09T16:06:27;3.40;99.90
11304;DHT22;5707;49.588;12.148;2023-01-09T16:08:55;3.50;99.90
11304;DHT22;5707;49.588;12.148;2023-01-09T16:11:34;3.40;99.90
11304;DHT22;5707;49.588;12.148;2023-01-09T16:14:12;3.40;99.90
11304;DHT22;5707;49.588;12.148;2023-01-09T16:16:39;3.50;99.90
11304;DHT22;5707;49.588;12.148;2023-01-09T16:19:29;3.70;99.90
11304;DHT22;5707;49.588;12.148;2023-01-09T16:21:57;3.90;99.90
11304;DHT22;5707;49.588;12.148;2023-01-09T16:24:33;4.00;99.90
11304;DHT22;5707;49.588;12.148;2023-01-09T16:27:21;4.00;99.90
11304;DHT22;5707;49.588;12.148;2023-01-09T16:29:50;4.10;99.90
11304;DHT22;5707;49.588;12.148;2023-01-09T16:32:27;4.10;99.90
11304;DHT22;5707;49.588;12.148;2023-01-09T16:34:56;4.10;99.90
11304;DHT22;5707;49.588;12.148;2023-01-09T16:37:23;4.10;99.90
11304;DHT22;5707;49.588;12.148;2023-01-09T16:42:59;4.20;99.90
11304;DHT22;5707;49.588;12.148;2023-01-09T16:45:43;4.20;99.90
11304;DHT22;5707;49.588;12.148;2023-01-09T16:48:13;4.20;99.90
11304;DHT22;5707;49.588;12.148;2023-01-09T16:50:39;4.20;99.90
11304;DHT22;5707;49.588;12.148;2023-01-09T16:53:16;4.20;99.90
11304;DHT22;5707;49.588;12.148;2023-01-09T16:55:43;4.30;99.90
11304;DHT22;5707;49.588;12.148;2023-01-09T16:58:21;4.30;99.90
11304;DHT22;5707;49.588;12.148;2023-01-09T17:00:48;4.30;99.90
11304;DHT22;5707;49.588;12.148;2023-01-09T17:03:14;4.30;99.90
11304;DHT22;5707;49.588;12.148;2023-01-09T17:05:40;4.30;99.90
11304;DHT22;5707;49.588;12.148;2023-01-09T17:10:43;4.40;99.90
11304;DHT22;5707;49.588;12.148;2023-01-09T17:13:08;4.40;99.90
11304;DHT22;5707;49.588;12.148;2023-01-09T17:15:34;4.40;99.90
11304;DHT22;5707;49.588;12.148;2023-01-09T17:18:00;4.40;99.90
11304;DHT22;5707;49.588;12.148;2023-01-09T17:20:26;4.40;99.90
11304;DHT22;5707;49.588;12.148;2023-01-09T17:22:54;4.20;99.90
11304;DHT22;5707;49.588;12.148;2023-01-09T17:25:19;4.00;99.90
11304;DHT22;5707;49.588;12.148;2023-01-09T17:28:04;3.70;99.90
11304;DHT22;5707;49.588;12.148;2023-01-09T17:30:48;3.50;99.90
11304;DHT22;5707;49.588;12.148;2023-01-09T17:33:15;3.50;99.90
11304;DHT22;5707;49.588;12.148;2023-01-09T17:35:42;3.40;99.90
11304;DHT22;5707;49.588;12.148;2023-01-09T17:38:16;3.40;99.90
11304;DHT22;5707;49.588;12.148;2023-01-09T17:40:43;3.20;99.90
11304;DHT22;5707;49.588;12.148;2023-01-09T17:43:09;3.00;99.90
11304;DHT22;5707;49.588;12.148;2023-01-09T17:45:35;3.00;99.90
11304;DHT22;5707;49.588;12.148;2023-01-09T17:48:02;2.90;99.90
11304;DHT22;5707;49.588;12.148;2023-01-09T17:50:27;2.80;99.90
11304;DHT22;5707;49.588;12.148;2023-01-09T17:52:57;2.70;99.90
11304;DHT22;5707;49.588;12.148;2023-01-09T17:55:23;2.80;99.90
11304;DHT22;5707;49.588;12.148;2023-01-09T17:57:49;2.90;99.90
11304;DHT22;5707;49.588;12.148;2023-01-09T18:00:27;3.20;99.90
11304;DHT22;5707;49.588;12.148;2023-01-09T18:02:54;3.40;99.90
11304;DHT22;5707;49.588;12.148;2023-01-09T18:05:24;3.40;99.90
11304;DHT22;5707;49.588;12.148;2023-01-09T18:07:50;3.50;99.90
11304;DHT22;5707;49.588;12.148;2023-01-09T18:10:21;3.60;99.90
11304;DHT22;5707;49.588;12.148;2023-01-09T18:12:52;3.60;99.90
11304;DHT22;5707;49.588;12.148;2023-01-09T18:15:19;3.70;99.90
11304;DHT22;5707;49.588;12.148;2023-01-09T18:17:45;3.70;99.90
11304;DHT22;5707;49.588;12.148;2023-01-09T18:20:11;3.70;99.90
11304;DHT22;5707;49.588;12.148;2023-01-09T18:22:36;3.70;99.90
11304;DHT22;5707;49.588;12.148;2023-01-09T18:25:03;3.80;99.90
11304;DHT22;5707;49.588;12.148;2023-01-09T18:27:29;3.80;99.90
11304;DHT22;5707;49.588;12.148;2023-01-09T18:29:55;3.80;99.90
11304;DHT22;5707;49.588;12.148;2023-01-09T18:32:23;3.90;99.90